sensor_id;sensor_type;location;lat;lon;timestamp;P1;durP1;ratioP1;P2;durP2;ratioP2
4986;SDS011;12674;51.500;7.552;2023-03-23T00:01:24;3.50;;;2.30;;
4986;SDS011;12674;51.500;7.552;2023-03-23T00:03:30;9.30;;;2.37;;
4986;SDS011;12674;51.500;7.552;2023-03-23T00:05:32;4.30;;;2.43;;
4986;SDS011;12674;51.500;7.552;2023-03-23T00:07:37;6.67;;;2.30;;
4986;SDS011;12674;51.500;7.552;2023-03-23T00:09:45;10.30;;;2.80;;
4986;SDS011;12674;51.500;7.552;2023-03-23T00:11:47;3.93;;;2.37;;
4986;SDS011;12674;51.500;7.552;2023-03-23T00:13:49;7.20;;;2.87;;
4986;SDS011;12674;51.500;7.552;2023-03-23T00:15:52;14.97;;;3.13;;
4986;SDS011;12674;51.500;7.552;2023-03-23T00:17:55;2.77;;;2.10;;
4986;SDS011;12674;51.500;7.552;2023-03-23T00:20:05;4.87;;;2.50;;
4986;SDS011;12674;51.500;7.552;2023-03-23T00:22:10;5.40;;;2.70;;
4986;SDS011;12674;51.500;7.552;2023-03-23T00:24:13;3.90;;;2.30;;
4986;SDS011;12674;51.500;7.552;2023-03-23T00:26:17;5.40;;;2.30;;
4986;SDS011;12674;51.500;7.552;2023-03-23T00:28:19;4.37;;;2.00;;
4986;SDS011;12674;51.500;7.552;2023-03-23T00:30:25;8.03;;;2.60;;
4986;SDS011;12674;51.500;7.552;2023-03-23T00:32:26;7.70;;;2.53;;
4986;SDS011;12674;51.500;7.552;2023-03-23T00:34:30;2.60;;;2.30;;
4986;SDS011;12674;51.500;7.552;2023-03-23T00:36:34;2.60;;;2.40;;
4986;SDS011;12674;51.500;7.552;2023-03-23T00:38:44;5.00;;;2.27;;
4986;SDS011;12674;51.500;7.552;2023-03-23T00:40:47;5.87;;;2.13;;
4986;SDS011;12674;51.500;7.552;2023-03-23T00:42:49;4.83;;;1.80;;
4986;SDS011;12674;51.500;7.552;2023-03-23T00:44:51;3.73;;;2.20;;
4986;SDS011;12674;51.500;7.552;2023-03-23T00:47:00;2.83;;;2.30;;
4986;SDS011;12674;51.500;7.552;2023-03-23T00:49:05;5.90;;;2.40;;
4986;SDS011;12674;51.500;7.552;2023-03-23T00:51:08;6.77;;;2.10;;
4986;SDS011;12674;51.500;7.552;2023-03-23T00:53:13;4.73;;;2.17;;
4986;SDS011;12674;51.500;7.552;2023-03-23T00:55:15;3.87;;;1.80;;
4986;SDS011;12674;51.500;7.552;2023-03-23T00:57:18;5.77;;;2.30;;
4986;SDS011;12674;51.500;7.552;2023-03-23T00:59:20;3.40;;;2.00;;
4986;SDS011;12674;51.500;7.552;2023-03-23T01:01:24;2.90;;;1.80;;
4986;SDS011;12674;51.500;7.552;2023-03-23T01:03:27;5.20;;;2.00;;
4986;SDS011;12674;51.500;7.552;2023-03-23T01:05:33;2.40;;;1.83;;
4986;SDS011;12674;51.500;7.552;2023-03-23T01:07:37;3.63;;;1.77;;
4986;SDS011;12674;51.500;7.552;2023-03-23T01:09:39;6.33;;;2.13;;
4986;SDS011;12674;51.500;7.552;2023-03-23T01:11:46;9.40;;;1.90;;
4986;SDS011;12674;51.500;7.552;2023-03-23T01:13:48;4.37;;;1.73;;
4986;SDS011;12674;51.500;7.552;2023-03-23T01:15:50;3.70;;;1.93;;
4986;SDS011;12674;51.500;7.552;2023-03-23T01:17:52;2.90;;;1.90;;
4986;SDS011;12674;51.500;7.552;2023-03-23T01:19:54;5.27;;;1.77;;
4986;SDS011;12674;51.500;7.552;2023-03-23T01:21:56;3.07;;;1.80;;
4986;SDS011;12674;51.500;7.552;2023-03-23T01:24:00;3.60;;;1.83;;
4986;SDS011;12674;51.500;7.552;2023-03-23T01:26:02;4.03;;;1.87;;
4986;SDS011;12674;51.500;7.552;2023-03-23T01:28:06;3.90;;;1.60;;
4986;SDS011;12674;51.500;7.552;2023-03-23T01:30:09;6.60;;;2.53;;
4986;SDS011;12674;51.500;7.552;2023-03-23T01:32:12;9.53;;;2.00;;
4986;SDS011;12674;51.500;7.552;2023-03-23T01:34:15;3.57;;;1.80;;
4986;SDS011;12674;51.500;7.552;2023-03-23T01:36:18;2.67;;;1.60;;
4986;SDS011;12674;51.500;7.552;2023-03-23T01:38:22;4.17;;;1.97;;
4986;SDS011;12674;51.500;7.552;2023-03-23T01:40:26;4.50;;;1.87;;
4986;SDS011;12674;51.500;7.552;2023-03-23T01:42:30;4.10;;;1.87;;
4986;SDS011;12674;51.500;7.552;2023-03-23T01:47:22;4.17;;;1.90;;
4986;SDS011;12674;51.500;7.552;2023-03-23T01:49:29;2.40;;;1.73;;
4986;SDS011;12674;51.500;7.552;2023-03-23T01:51:35;1.60;;;1.50;;
4986;SDS011;12674;51.500;7.552;2023-03-23T01:53:42;7.83;;;1.93;;
4986;SDS011;12674;51.500;7.552;2023-03-23T01:55:49;5.03;;;1.73;;
4986;SDS011;12674;51.500;7.552;2023-03-23T01:57:52;3.03;;;1.70;;
4986;SDS011;12674;51.500;7.552;2023-03-23T01:59:57;2.53;;;1.70;;
4986;SDS011;12674;51.500;7.552;2023-03-23T02:02:14;2.97;;;1.63;;
4986;SDS011;12674;51.500;7.552;2023-03-23T02:04:17;2.57;;;1.80;;
4986;SDS011;12674;51.500;7.552;2023-03-23T02:06:20;3.03;;;1.80;;
4986;SDS011;12674;51.500;7.552;2023-03-23T02:08:44;2.60;;;2.00;;
4986;SDS011;12674;51.500;7.552;2023-03-23T02:10:51;2.50;;;1.93;;
4986;SDS011;12674;51.500;7.552;2023-03-23T02:12:53;3.23;;;1.67;;
4986;SDS011;12674;51.500;7.552;2023-03-23T02:14:55;3.43;;;1.53;;
4986;SDS011;12674;51.500;7.552;2023-03-23T02:16:59;2.27;;;1.83;;
4986;SDS011;12674;51.500;7.552;2023-03-23T02:19:07;4.07;;;1.67;;
4986;SDS011;12674;51.500;7.552;2023-03-23T02:21:26;2.60;;;1.67;;
4986;SDS011;12674;51.500;7.552;2023-03-23T02:23:47;4.90;;;1.83;;
4986;SDS011;12674;51.500;7.552;2023-03-23T02:25:58;4.60;;;1.63;;
4986;SDS011;12674;51.500;7.552;2023-03-23T02:28:11;2.90;;;1.60;;
4986;SDS011;12674;51.500;7.552;2023-03-23T02:30:27;4.60;;;1.87;;
4986;SDS011;12674;51.500;7.552;2023-03-23T02:35:10;4.60;;;1.60;;
4986;SDS011;12674;51.500;7.552;2023-03-23T02:37:14;4.00;;;2.40;;
4986;SDS011;12674;51.500;7.552;2023-03-23T02:39:22;4.10;;;1.37;;
4986;SDS011;12674;51.500;7.552;2023-03-23T02:41:27;1.83;;;1.73;;
4986;SDS011;12674;51.500;7.552;2023-03-23T02:43:33;4.27;;;1.73;;
4986;SDS011;12674;51.500;7.552;2023-03-23T02:45:38;3.30;;;1.70;;
4986;SDS011;12674;51.500;7.552;2023-03-23T02:47:43;3.20;;;1.90;;
4986;SDS011;12674;51.500;7.552;2023-03-23T02:49:47;3.27;;;1.87;;
4986;SDS011;12674;51.500;7.552;2023-03-23T02:51:50;2.97;;;1.90;;
4986;SDS011;12674;51.500;7.552;2023-03-23T02:53:54;3.40;;;1.90;;
4986;SDS011;12674;51.500;7.552;2023-03-23T02:55:58;2.67;;;1.60;;
4986;SDS011;12674;51.500;7.552;2023-03-23T02:58:03;1.60;;;1.50;;
4986;SDS011;12674;51.500;7.552;2023-03-23T03:00:05;3.20;;;1.60;;
4986;SDS011;12674;51.500;7.552;2023-03-23T03:02:11;1.47;;;1.33;;
4986;SDS011;12674;51.500;7.552;2023-03-23T03:04:14;3.00;;;1.40;;
4986;SDS011;12674;51.500;7.552;2023-03-23T03:06:22;2.80;;;1.50;;
4986;SDS011;12674;51.500;7.552;2023-03-23T03:08:30;1.60;;;1.50;;
4986;SDS011;12674;51.500;7.552;2023-03-23T03:10:38;2.23;;;1.57;;
4986;SDS011;12674;51.500;7.552;2023-03-23T03:12:47;1.53;;;1.10;;
4986;SDS011;12674;51.500;7.552;2023-03-23T03:14:57;2.23;;;1.20;;
4986;SDS011;12674;51.500;7.552;2023-03-23T03:17:09;3.63;;;1.37;;
4986;SDS011;12674;51.500;7.552;2023-03-23T03:19:14;4.10;;;2.10;;
4986;SDS011;12674;51.500;7.552;2023-03-23T03:21:19;1.60;;;1.50;;
4986;SDS011;12674;51.500;7.552;2023-03-23T03:23:27;2.30;;;1.47;;
4986;SDS011;12674;51.500;7.552;2023-03-23T03:25:33;1.70;;;1.60;;
4986;SDS011;12674;51.500;7.552;2023-03-23T03:27:36;2.80;;;1.83;;
4986;SDS011;12674;51.500;7.552;2023-03-23T03:29:49;1.47;;;1.37;;
4986;SDS011;12674;51.500;7.552;2023-03-23T03:31:55;4.53;;;1.90;;
4986;SDS011;12674;51.500;7.552;2023-03-23T03:34:00;2.97;;;1.87;;
4986;SDS011;12674;51.500;7.552;2023-03-23T03:36:05;3.20;;;1.90;;
4986;SDS011;12674;51.500;7.552;2023-03-23T03:38:11;5.30;;;2.40;;
4986;SDS011;12674;51.500;7.552;2023-03-23T03:40:16;6.47;;;1.43;;
4986;SDS011;12674;51.500;7.552;2023-03-23T03:42:19;3.17;;;1.37;;
4986;SDS011;12674;51.500;7.552;2023-03-23T03:44:21;3.00;;;2.20;;
4986;SDS011;12674;51.500;7.552;2023-03-23T03:46:23;1.90;;;1.43;;
4986;SDS011;12674;51.500;7.552;2023-03-23T03:48:28;2.40;;;1.37;;
4986;SDS011;12674;51.500;7.552;2023-03-23T03:50:30;1.57;;;1.40;;
4986;SDS011;12674;51.500;7.552;2023-03-23T03:52:32;3.00;;;1.97;;
4986;SDS011;12674;51.500;7.552;2023-03-23T03:54:36;1.97;;;1.47;;
4986;SDS011;12674;51.500;7.552;2023-03-23T03:56:40;1.93;;;1.30;;
4986;SDS011;12674;51.500;7.552;2023-03-23T03:59:09;9.23;;;1.60;;
4986;SDS011;12674;51.500;7.552;2023-03-23T04:01:41;5.17;;;1.70;;
4986;SDS011;12674;51.500;7.552;2023-03-23T04:03:44;1.57;;;1.47;;
4986;SDS011;12674;51.500;7.552;2023-03-23T04:05:57;2.60;;;1.50;;
4986;SDS011;12674;51.500;7.552;2023-03-23T04:07:59;1.63;;;1.40;;
4986;SDS011;12674;51.500;7.552;2023-03-23T04:10:08;1.40;;;1.30;;
4986;SDS011;12674;51.500;7.552;2023-03-23T04:12:11;2.03;;;1.60;;
4986;SDS011;12674;51.500;7.552;2023-03-23T04:14:32;2.00;;;1.30;;
4986;SDS011;12674;51.500;7.552;2023-03-23T04:16:34;2.93;;;1.57;;
4986;SDS011;12674;51.500;7.552;2023-03-23T04:18:36;3.93;;;1.70;;
4986;SDS011;12674;51.500;7.552;2023-03-23T04:20:38;1.20;;;1.20;;
4986;SDS011;12674;51.500;7.552;2023-03-23T04:22:42;5.80;;;1.43;;
4986;SDS011;12674;51.500;7.552;2023-03-23T04:24:44;1.50;;;1.40;;
4986;SDS011;12674;51.500;7.552;2023-03-23T04:26:53;1.93;;;1.70;;
4986;SDS011;12674;51.500;7.552;2023-03-23T04:29:00;1.87;;;1.57;;
4986;SDS011;12674;51.500;7.552;2023-03-23T04:31:09;3.03;;;1.77;;
4986;SDS011;12674;51.500;7.552;2023-03-23T04:33:16;3.40;;;1.57;;
4986;SDS011;12674;51.500;7.552;2023-03-23T04:35:21;3.10;;;1.70;;
4986;SDS011;12674;51.500;7.552;2023-03-23T04:37:37;1.80;;;1.70;;
4986;SDS011;12674;51.500;7.552;2023-03-23T04:39:41;1.47;;;1.37;;
4986;SDS011;12674;51.500;7.552;2023-03-23T04:41:46;3.77;;;1.47;;
4986;SDS011;12674;51.500;7.552;2023-03-23T04:44:22;2.73;;;1.50;;
4986;SDS011;12674;51.500;7.552;2023-03-23T04:46:35;3.43;;;1.80;;
4986;SDS011;12674;51.500;7.552;2023-03-23T04:48:42;2.03;;;1.30;;
4986;SDS011;12674;51.500;7.552;2023-03-23T04:50:51;5.93;;;1.70;;
4986;SDS011;12674;51.500;7.552;2023-03-23T04:53:04;1.20;;;1.10;;
4986;SDS011;12674;51.500;7.552;2023-03-23T04:55:07;3.13;;;1.17;;
4986;SDS011;12674;51.500;7.552;2023-03-23T04:57:11;6.20;;;1.43;;
4986;SDS011;12674;51.500;7.552;2023-03-23T04:59:18;1.63;;;1.53;;
4986;SDS011;12674;51.500;7.552;2023-03-23T05:01:43;2.17;;;1.23;;
4986;SDS011;12674;51.500;7.552;2023-03-23T05:03:53;2.20;;;1.60;;
4986;SDS011;12674;51.500;7.552;2023-03-23T05:05:56;5.07;;;1.60;;
4986;SDS011;12674;51.500;7.552;2023-03-23T05:07:58;1.40;;;1.30;;
4986;SDS011;12674;51.500;7.552;2023-03-23T05:10:04;1.57;;;1.40;;
4986;SDS011;12674;51.500;7.552;2023-03-23T05:12:08;1.47;;;1.30;;
4986;SDS011;12674;51.500;7.552;2023-03-23T05:14:22;3.43;;;1.30;;
4986;SDS011;12674;51.500;7.552;2023-03-23T05:16:35;1.37;;;1.03;;
4986;SDS011;12674;51.500;7.552;2023-03-23T05:18:39;1.37;;;1.07;;
4986;SDS011;12674;51.500;7.552;2023-03-23T05:20:44;1.97;;;1.00;;
4986;SDS011;12674;51.500;7.552;2023-03-23T05:22:57;2.77;;;1.23;;
4986;SDS011;12674;51.500;7.552;2023-03-23T05:25:04;3.60;;;1.40;;
4986;SDS011;12674;51.500;7.552;2023-03-23T05:27:10;1.53;;;1.43;;
4986;SDS011;12674;51.500;7.552;2023-03-23T05:29:21;2.13;;;1.43;;
4986;SDS011;12674;51.500;7.552;2023-03-23T05:31:32;1.20;;;1.10;;
4986;SDS011;12674;51.500;7.552;2023-03-23T05:33:34;1.70;;;1.20;;
4986;SDS011;12674;51.500;7.552;2023-03-23T05:35:41;2.27;;;1.30;;
4986;SDS011;12674;51.500;7.552;2023-03-23T05:37:43;1.93;;;1.67;;
4986;SDS011;12674;51.500;7.552;2023-03-23T05:39:46;2.17;;;1.37;;
4986;SDS011;12674;51.500;7.552;2023-03-23T05:41:48;11.40;;;1.93;;
4986;SDS011;12674;51.500;7.552;2023-03-23T05:43:50;1.57;;;1.40;;
4986;SDS011;12674;51.500;7.552;2023-03-23T05:45:52;2.03;;;1.30;;
4986;SDS011;12674;51.500;7.552;2023-03-23T05:47:55;3.30;;;1.40;;
4986;SDS011;12674;51.500;7.552;2023-03-23T05:49:59;2.00;;;1.40;;
4986;SDS011;12674;51.500;7.552;2023-03-23T05:52:05;1.47;;;1.37;;
4986;SDS011;12674;51.500;7.552;2023-03-23T05:54:07;4.23;;;1.30;;
4986;SDS011;12674;51.500;7.552;2023-03-23T05:56:11;4.50;;;1.33;;
4986;SDS011;12674;51.500;7.552;2023-03-23T05:58:33;1.60;;;1.37;;
4986;SDS011;12674;51.500;7.552;2023-03-23T06:00:37;1.67;;;1.10;;
4986;SDS011;12674;51.500;7.552;2023-03-23T06:02:54;2.23;;;1.30;;
4986;SDS011;12674;51.500;7.552;2023-03-23T06:05:04;1.90;;;1.50;;
4986;SDS011;12674;51.500;7.552;2023-03-23T06:07:10;4.00;;;1.67;;
4986;SDS011;12674;51.500;7.552;2023-03-23T06:09:20;1.33;;;1.20;;
4986;SDS011;12674;51.500;7.552;2023-03-23T06:11:59;2.20;;;1.43;;
4986;SDS011;12674;51.500;7.552;2023-03-23T06:14:15;1.60;;;1.23;;
4986;SDS011;12674;51.500;7.552;2023-03-23T06:16:19;5.93;;;1.63;;
4986;SDS011;12674;51.500;7.552;2023-03-23T06:18:27;1.30;;;1.20;;
4986;SDS011;12674;51.500;7.552;2023-03-23T06:20:42;1.47;;;1.20;;
4986;SDS011;12674;51.500;7.552;2023-03-23T06:23:14;1.67;;;1.27;;
4986;SDS011;12674;51.500;7.552;2023-03-23T06:25:16;2.93;;;1.50;;
4986;SDS011;12674;51.500;7.552;2023-03-23T06:27:19;2.23;;;1.23;;
4986;SDS011;12674;51.500;7.552;2023-03-23T06:29:22;2.30;;;1.57;;
4986;SDS011;12674;51.500;7.552;2023-03-23T06:31:28;2.30;;;1.90;;
4986;SDS011;12674;51.500;7.552;2023-03-23T06:33:30;2.87;;;1.43;;
4986;SDS011;12674;51.500;7.552;2023-03-23T06:35:58;1.60;;;1.50;;
4986;SDS011;12674;51.500;7.552;2023-03-23T06:38:28;3.00;;;1.30;;
4986;SDS011;12674;51.500;7.552;2023-03-23T06:40:30;4.27;;;1.30;;
4986;SDS011;12674;51.500;7.552;2023-03-23T06:42:33;2.83;;;1.50;;
4986;SDS011;12674;51.500;7.552;2023-03-23T06:44:53;3.17;;;1.60;;
4986;SDS011;12674;51.500;7.552;2023-03-23T06:46:58;1.70;;;1.50;;
4986;SDS011;12674;51.500;7.552;2023-03-23T06:49:04;1.60;;;1.50;;
4986;SDS011;12674;51.500;7.552;2023-03-23T06:51:17;4.90;;;1.97;;
4986;SDS011;12674;51.500;7.552;2023-03-23T06:53:24;4.70;;;1.77;;
4986;SDS011;12674;51.500;7.552;2023-03-23T06:55:30;2.10;;;1.80;;
4986;SDS011;12674;51.500;7.552;2023-03-23T06:57:32;4.20;;;1.53;;
4986;SDS011;12674;51.500;7.552;2023-03-23T06:59:34;2.47;;;1.52;;
4986;SDS011;12674;51.500;7.552;2023-03-23T07:01:37;3.10;;;1.40;;
4986;SDS011;12674;51.500;7.552;2023-03-23T07:03:40;2.17;;;1.33;;
4986;SDS011;12674;51.500;7.552;2023-03-23T07:05:45;3.50;;;1.73;;
4986;SDS011;12674;51.500;7.552;2023-03-23T07:07:50;1.67;;;1.27;;
4986;SDS011;12674;51.500;7.552;2023-03-23T07:10:04;1.70;;;1.60;;
4986;SDS011;12674;51.500;7.552;2023-03-23T07:12:09;7.13;;;1.83;;
4986;SDS011;12674;51.500;7.552;2023-03-23T07:14:18;1.90;;;1.70;;
4986;SDS011;12674;51.500;7.552;2023-03-23T07:16:22;3.80;;;2.10;;
4986;SDS011;12674;51.500;7.552;2023-03-23T07:18:27;2.53;;;1.60;;
4986;SDS011;12674;51.500;7.552;2023-03-23T07:20:33;3.50;;;1.97;;
4986;SDS011;12674;51.500;7.552;2023-03-23T07:22:35;5.30;;;1.50;;
4986;SDS011;12674;51.500;7.552;2023-03-23T07:24:50;6.00;;;1.87;;
4986;SDS011;12674;51.500;7.552;2023-03-23T07:26:58;8.00;;;1.30;;
4986;SDS011;12674;51.500;7.552;2023-03-23T07:29:02;3.70;;;1.70;;
4986;SDS011;12674;51.500;7.552;2023-03-23T07:31:11;7.13;;;2.00;;
4986;SDS011;12674;51.500;7.552;2023-03-23T07:33:13;7.00;;;1.80;;
4986;SDS011;12674;51.500;7.552;2023-03-23T07:35:16;5.93;;;1.52;;
4986;SDS011;12674;51.500;7.552;2023-03-23T07:37:38;4.75;;;1.65;;
4986;SDS011;12674;51.500;7.552;2023-03-23T07:39:41;7.57;;;1.60;;
4986;SDS011;12674;51.500;7.552;2023-03-23T07:41:45;4.07;;;1.67;;
4986;SDS011;12674;51.500;7.552;2023-03-23T07:43:56;3.90;;;1.50;;
4986;SDS011;12674;51.500;7.552;2023-03-23T07:46:08;8.43;;;1.80;;
4986;SDS011;12674;51.500;7.552;2023-03-23T07:48:31;3.92;;;1.40;;
4986;SDS011;12674;51.500;7.552;2023-03-23T07:50:33;3.70;;;1.58;;
4986;SDS011;12674;51.500;7.552;2023-03-23T07:52:40;4.25;;;1.45;;
4986;SDS011;12674;51.500;7.552;2023-03-23T07:54:43;2.22;;;1.23;;
4986;SDS011;12674;51.500;7.552;2023-03-23T07:56:58;6.22;;;2.13;;
4986;SDS011;12674;51.500;7.552;2023-03-23T07:59:04;4.90;;;1.45;;
4986;SDS011;12674;51.500;7.552;2023-03-23T08:01:13;3.85;;;1.35;;
4986;SDS011;12674;51.500;7.552;2023-03-23T08:03:22;13.95;;;2.00;;
4986;SDS011;12674;51.500;7.552;2023-03-23T08:05:48;5.57;;;1.90;;
4986;SDS011;12674;51.500;7.552;2023-03-23T08:08:17;4.00;;;1.30;;
4986;SDS011;12674;51.500;7.552;2023-03-23T08:10:55;6.25;;;1.83;;
4986;SDS011;12674;51.500;7.552;2023-03-23T08:13:16;3.83;;;1.58;;
4986;SDS011;12674;51.500;7.552;2023-03-23T08:15:44;10.15;;;2.13;;
4986;SDS011;12674;51.500;7.552;2023-03-23T08:17:54;4.18;;;1.88;;
4986;SDS011;12674;51.500;7.552;2023-03-23T08:20:15;4.68;;;1.67;;
4986;SDS011;12674;51.500;7.552;2023-03-23T08:22:44;8.90;;;1.83;;
4986;SDS011;12674;51.500;7.552;2023-03-23T08:25:04;4.07;;;1.58;;
4986;SDS011;12674;51.500;7.552;2023-03-23T08:27:24;3.15;;;1.80;;
4986;SDS011;12674;51.500;7.552;2023-03-23T08:29:51;4.90;;;1.75;;
4986;SDS011;12674;51.500;7.552;2023-03-23T08:32:13;2.80;;;1.10;;
4986;SDS011;12674;51.500;7.552;2023-03-23T08:34:41;3.75;;;1.73;;
4986;SDS011;12674;51.500;7.552;2023-03-23T08:36:59;2.17;;;1.35;;
4986;SDS011;12674;51.500;7.552;2023-03-23T08:39:02;5.03;;;1.90;;
4986;SDS011;12674;51.500;7.552;2023-03-23T08:41:27;5.68;;;1.75;;
4986;SDS011;12674;51.500;7.552;2023-03-23T08:43:53;4.60;;;1.70;;
4986;SDS011;12674;51.500;7.552;2023-03-23T08:46:14;4.60;;;1.60;;
4986;SDS011;12674;51.500;7.552;2023-03-23T08:48:38;8.73;;;2.05;;
4986;SDS011;12674;51.500;7.552;2023-03-23T08:51:02;5.50;;;1.88;;
4986;SDS011;12674;51.500;7.552;2023-03-23T08:53:23;4.88;;;1.85;;
4986;SDS011;12674;51.500;7.552;2023-03-23T08:56:05;2.05;;;1.42;;
4986;SDS011;12674;51.500;7.552;2023-03-23T08:58:27;2.60;;;1.20;;
4986;SDS011;12674;51.500;7.552;2023-03-23T09:00:48;7.90;;;2.00;;
4986;SDS011;12674;51.500;7.552;2023-03-23T09:03:22;3.38;;;2.03;;
4986;SDS011;12674;51.500;7.552;2023-03-23T09:05:34;2.90;;;1.58;;
4986;SDS011;12674;51.500;7.552;2023-03-23T09:07:52;3.17;;;1.20;;
4986;SDS011;12674;51.500;7.552;2023-03-23T09:09:55;5.97;;;1.58;;
4986;SDS011;12674;51.500;7.552;2023-03-23T09:11:57;3.88;;;1.95;;
4986;SDS011;12674;51.500;7.552;2023-03-23T09:13:59;3.00;;;1.45;;
4986;SDS011;12674;51.500;7.552;2023-03-23T09:16:01;4.40;;;1.60;;
4986;SDS011;12674;51.500;7.552;2023-03-23T09:18:04;5.32;;;2.17;;
4986;SDS011;12674;51.500;7.552;2023-03-23T09:20:07;3.50;;;1.40;;
4986;SDS011;12674;51.500;7.552;2023-03-23T09:22:12;4.18;;;1.50;;
4986;SDS011;12674;51.500;7.552;2023-03-23T09:24:17;5.75;;;2.00;;
4986;SDS011;12674;51.500;7.552;2023-03-23T09:26:19;3.47;;;1.40;;
4986;SDS011;12674;51.500;7.552;2023-03-23T09:28:21;11.30;;;1.73;;
4986;SDS011;12674;51.500;7.552;2023-03-23T09:30:25;4.75;;;1.75;;
4986;SDS011;12674;51.500;7.552;2023-03-23T09:32:28;3.63;;;2.15;;
4986;SDS011;12674;51.500;7.552;2023-03-23T09:34:29;13.88;;;2.20;;
4986;SDS011;12674;51.500;7.552;2023-03-23T09:36:35;11.15;;;1.88;;
4986;SDS011;12674;51.500;7.552;2023-03-23T09:38:39;7.22;;;1.67;;
4986;SDS011;12674;51.500;7.552;2023-03-23T09:40:45;4.88;;;1.83;;
4986;SDS011;12674;51.500;7.552;2023-03-23T09:42:52;8.15;;;2.15;;
4986;SDS011;12674;51.500;7.552;2023-03-23T09:45:10;4.20;;;1.70;;
4986;SDS011;12674;51.500;7.552;2023-03-23T09:47:19;10.38;;;1.73;;
4986;SDS011;12674;51.500;7.552;2023-03-23T09:49:23;7.70;;;1.95;;
4986;SDS011;12674;51.500;7.552;2023-03-23T09:51:32;6.30;;;2.58;;
4986;SDS011;12674;51.500;7.552;2023-03-23T09:53:43;5.55;;;1.55;;
4986;SDS011;12674;51.500;7.552;2023-03-23T09:55:50;4.68;;;1.92;;
4986;SDS011;12674;51.500;7.552;2023-03-23T09:57:54;9.02;;;2.20;;
4986;SDS011;12674;51.500;7.552;2023-03-23T10:00:00;5.75;;;1.88;;
4986;SDS011;12674;51.500;7.552;2023-03-23T10:02:13;7.93;;;1.95;;
4986;SDS011;12674;51.500;7.552;2023-03-23T10:04:34;5.00;;;1.83;;
4986;SDS011;12674;51.500;7.552;2023-03-23T10:06:39;3.90;;;1.50;;
4986;SDS011;12674;51.500;7.552;2023-03-23T10:08:43;6.22;;;1.90;;
4986;SDS011;12674;51.500;7.552;2023-03-23T10:10:50;6.80;;;2.00;;
4986;SDS011;12674;51.500;7.552;2023-03-23T10:13:00;8.98;;;1.77;;
4986;SDS011;12674;51.500;7.552;2023-03-23T10:15:09;7.30;;;1.77;;
4986;SDS011;12674;51.500;7.552;2023-03-23T10:17:15;4.75;;;1.83;;
4986;SDS011;12674;51.500;7.552;2023-03-23T10:19:20;5.95;;;2.20;;
4986;SDS011;12674;51.500;7.552;2023-03-23T10:21:28;11.90;;;2.20;;
4986;SDS011;12674;51.500;7.552;2023-03-23T10:23:43;13.15;;;1.67;;
4986;SDS011;12674;51.500;7.552;2023-03-23T10:25:51;6.85;;;1.95;;
4986;SDS011;12674;51.500;7.552;2023-03-23T10:27:56;6.60;;;1.55;;
4986;SDS011;12674;51.500;7.552;2023-03-23T10:30:08;12.85;;;2.28;;
4986;SDS011;12674;51.500;7.552;2023-03-23T10:32:16;10.15;;;1.85;;
4986;SDS011;12674;51.500;7.552;2023-03-23T10:34:21;6.45;;;2.00;;
4986;SDS011;12674;51.500;7.552;2023-03-23T10:36:28;13.38;;;2.65;;
4986;SDS011;12674;51.500;7.552;2023-03-23T10:38:33;9.75;;;1.88;;
4986;SDS011;12674;51.500;7.552;2023-03-23T10:40:43;8.43;;;2.80;;
4986;SDS011;12674;51.500;7.552;2023-03-23T10:42:48;16.63;;;3.20;;
4986;SDS011;12674;51.500;7.552;2023-03-23T10:44:53;7.07;;;2.47;;
4986;SDS011;12674;51.500;7.552;2023-03-23T10:46:57;7.15;;;1.77;;
4986;SDS011;12674;51.500;7.552;2023-03-23T10:49:01;4.40;;;1.60;;
4986;SDS011;12674;51.500;7.552;2023-03-23T10:51:09;5.63;;;2.22;;
4986;SDS011;12674;51.500;7.552;2023-03-23T10:53:25;7.80;;;1.70;;
4986;SDS011;12674;51.500;7.552;2023-03-23T10:55:36;2.25;;;1.35;;
4986;SDS011;12674;51.500;7.552;2023-03-23T10:57:41;3.60;;;1.63;;
4986;SDS011;12674;51.500;7.552;2023-03-23T10:59:44;4.55;;;1.50;;
4986;SDS011;12674;51.500;7.552;2023-03-23T11:01:49;3.08;;;1.48;;
4986;SDS011;12674;51.500;7.552;2023-03-23T11:03:52;4.57;;;1.63;;
4986;SDS011;12674;51.500;7.552;2023-03-23T11:05:56;7.50;;;1.90;;
4986;SDS011;12674;51.500;7.552;2023-03-23T11:07:59;7.90;;;1.85;;
4986;SDS011;12674;51.500;7.552;2023-03-23T11:10:07;4.85;;;1.75;;
4986;SDS011;12674;51.500;7.552;2023-03-23T11:12:20;3.88;;;1.58;;
4986;SDS011;12674;51.500;7.552;2023-03-23T11:14:24;8.05;;;1.80;;
4986;SDS011;12674;51.500;7.552;2023-03-23T11:16:29;5.57;;;1.70;;
4986;SDS011;12674;51.500;7.552;2023-03-23T11:18:36;6.32;;;1.58;;
4986;SDS011;12674;51.500;7.552;2023-03-23T11:20:39;4.60;;;1.60;;
4986;SDS011;12674;51.500;7.552;2023-03-23T11:22:43;5.18;;;1.30;;
4986;SDS011;12674;51.500;7.552;2023-03-23T11:24:47;2.97;;;1.15;;
4986;SDS011;12674;51.500;7.552;2023-03-23T11:26:52;3.95;;;1.38;;
4986;SDS011;12674;51.500;7.552;2023-03-23T11:28:56;5.63;;;2.08;;
4986;SDS011;12674;51.500;7.552;2023-03-23T11:31:00;5.78;;;1.33;;
4986;SDS011;12674;51.500;7.552;2023-03-23T11:33:05;2.83;;;1.23;;
4986;SDS011;12674;51.500;7.552;2023-03-23T11:35:15;4.38;;;1.80;;
4986;SDS011;12674;51.500;7.552;2023-03-23T11:37:20;5.63;;;1.83;;
4986;SDS011;12674;51.500;7.552;2023-03-23T11:39:26;2.80;;;1.30;;
4986;SDS011;12674;51.500;7.552;2023-03-23T11:41:31;4.13;;;2.28;;
4986;SDS011;12674;51.500;7.552;2023-03-23T11:43:38;3.65;;;2.15;;
4986;SDS011;12674;51.500;7.552;2023-03-23T11:45:47;5.40;;;2.17;;
4986;SDS011;12674;51.500;7.552;2023-03-23T11:47:57;5.00;;;2.50;;
4986;SDS011;12674;51.500;7.552;2023-03-23T11:50:08;7.20;;;2.90;;
4986;SDS011;12674;51.500;7.552;2023-03-23T11:52:16;6.70;;;3.30;;
4986;SDS011;12674;51.500;7.552;2023-03-23T11:54:26;3.63;;;3.30;;
4986;SDS011;12674;51.500;7.552;2023-03-23T11:56:32;6.23;;;3.17;;
4986;SDS011;12674;51.500;7.552;2023-03-23T11:58:36;4.83;;;3.70;;
4986;SDS011;12674;51.500;7.552;2023-03-23T12:00:39;6.23;;;3.97;;
4986;SDS011;12674;51.500;7.552;2023-03-23T12:07:51;7.50;;;4.37;;
4986;SDS011;12674;51.500;7.552;2023-03-23T12:09:59;7.67;;;4.33;;
4986;SDS011;12674;51.500;7.552;2023-03-23T12:12:10;8.93;;;4.00;;
4986;SDS011;12674;51.500;7.552;2023-03-23T12:14:18;5.10;;;4.53;;
4986;SDS011;12674;51.500;7.552;2023-03-23T12:16:27;3.70;;;3.40;;
4986;SDS011;12674;51.500;7.552;2023-03-23T12:20:57;5.00;;;4.03;;
4986;SDS011;12674;51.500;7.552;2023-03-23T12:28:09;3.17;;;2.90;;
4986;SDS011;12674;51.500;7.552;2023-03-23T12:30:30;3.60;;;3.30;;
4986;SDS011;12674;51.500;7.552;2023-03-23T12:32:38;3.90;;;3.50;;
4986;SDS011;12674;51.500;7.552;2023-03-23T12:35:00;11.20;;;3.63;;
4986;SDS011;12674;51.500;7.552;2023-03-23T12:37:11;4.70;;;3.73;;
4986;SDS011;12674;51.500;7.552;2023-03-23T12:39:41;5.73;;;4.10;;
4986;SDS011;12674;51.500;7.552;2023-03-23T12:41:58;3.90;;;3.40;;
4986;SDS011;12674;51.500;7.552;2023-03-23T12:44:03;3.60;;;3.30;;
4986;SDS011;12674;51.500;7.552;2023-03-23T12:48:52;3.47;;;3.27;;
4986;SDS011;12674;51.500;7.552;2023-03-23T12:51:11;3.77;;;2.93;;
4986;SDS011;12674;51.500;7.552;2023-03-23T12:53:20;2.70;;;2.50;;
4986;SDS011;12674;51.500;7.552;2023-03-23T12:55:26;2.50;;;2.07;;
4986;SDS011;12674;51.500;7.552;2023-03-23T12:57:32;2.33;;;1.83;;
4986;SDS011;12674;51.500;7.552;2023-03-23T12:59:38;3.13;;;2.23;;
4986;SDS011;12674;51.500;7.552;2023-03-23T13:01:42;1.90;;;1.80;;
4986;SDS011;12674;51.500;7.552;2023-03-23T13:03:46;2.00;;;1.80;;
4986;SDS011;12674;51.500;7.552;2023-03-23T13:05:57;2.20;;;2.00;;
4986;SDS011;12674;51.500;7.552;2023-03-23T13:08:03;4.30;;;1.97;;
4986;SDS011;12674;51.500;7.552;2023-03-23T13:10:12;4.50;;;2.40;;
4986;SDS011;12674;51.500;7.552;2023-03-23T13:12:22;3.60;;;2.57;;
4986;SDS011;12674;51.500;7.552;2023-03-23T13:14:27;3.10;;;2.17;;
4986;SDS011;12674;51.500;7.552;2023-03-23T13:16:37;3.50;;;2.90;;
4986;SDS011;12674;51.500;7.552;2023-03-23T13:18:44;3.23;;;2.50;;
4986;SDS011;12674;51.500;7.552;2023-03-23T13:20:54;3.13;;;2.33;;
4986;SDS011;12674;51.500;7.552;2023-03-23T13:23:02;3.73;;;2.47;;
4986;SDS011;12674;51.500;7.552;2023-03-23T13:25:08;3.20;;;2.90;;